createdAt,value
2019-04-27T00:01:59.735Z,94475.09
2019-04-27T00:04:34.682Z,94481.88
2019-04-27T00:07:16.955Z,94472.94
2019-04-27T00:09:51.227Z,94471.80
2019-04-27T00:12:22.843Z,94461.22
2019-04-27T00:14:48.250Z,94467.50
2019-04-27T00:17:40.353Z,94471.30
2019-04-27T00:19:51.354Z,94469.15
2019-04-27T00:22:33.474Z,94462.70
2019-04-27T00:25:00.123Z,94465.83
2019-04-27T00:27:26.696Z,94459.00
2019-04-27T00:29:53.580Z,94455.84
2019-04-27T00:32:20.302Z,94457.83
2019-04-27T00:34:46.840Z,94460.67
2019-04-27T00:37:25.651Z,94458.22
2019-04-27T00:39:54.087Z,94448.23
2019-04-27T00:42:21.130Z,94457.87
2019-04-27T00:44:47.762Z,94448.58
2019-04-27T00:47:14.305Z,94455.72
2019-04-27T00:49:40.846Z,94446.81
2019-04-27T00:52:07.385Z,94447.82
2019-04-27T00:54:34.076Z,94448.98
2019-04-27T00:57:13.069Z,94448.01
2019-04-27T00:59:47.541Z,94446.34
2019-04-27T01:02:33.492Z,94450.69
2019-04-27T01:05:04.067Z,94451.01
2019-04-27T01:07:33.377Z,94452.18
2019-04-27T01:10:00.041Z,94442.70
2019-04-27T01:12:26.569Z,94447.03
2019-04-27T01:14:53.555Z,94443.87
2019-04-27T01:17:20.129Z,94438.03
2019-04-27T01:19:46.672Z,94444.37
2019-04-27T01:22:13.306Z,94436.26
2019-04-27T01:24:39.838Z,94431.80
2019-04-27T01:27:23.833Z,94433.12
2019-04-27T01:29:51.775Z,94433.29
2019-04-27T01:32:20.589Z,94429.44
2019-04-27T01:34:47.061Z,94429.59
2019-04-27T01:37:13.620Z,94423.15
2019-04-27T01:39:40.162Z,94415.82
2019-04-27T01:42:06.705Z,94428.93
2019-04-27T01:44:33.242Z,94417.66
2019-04-27T01:47:00.475Z,94421.31
2019-04-27T01:49:27.008Z,94421.47
2019-04-27T01:51:53.653Z,94416.17
2019-04-27T01:54:22.113Z,94415.31
2019-04-27T01:56:49.265Z,94420.11
2019-04-27T01:59:16.081Z,94417.30
2019-04-27T02:01:48.907Z,94418.47
2019-04-27T02:04:19.345Z,94415.47
2019-04-27T02:06:48.726Z,94419.64
2019-04-27T02:09:18.690Z,94418.82
2019-04-27T02:11:45.548Z,94423.78
2019-04-27T02:14:12.184Z,94421.44
2019-04-27T02:16:39.207Z,94421.75
2019-04-27T02:19:05.987Z,94416.41
2019-04-27T02:21:32.531Z,94417.39
2019-04-27T02:23:59.855Z,94419.03
2019-04-27T02:26:26.495Z,94405.41
2019-04-27T02:28:54.966Z,94406.30
2019-04-27T02:31:32.437Z,94406.14
2019-04-27T02:33:59.581Z,94400.53
2019-04-27T02:36:26.444Z,94398.73
2019-04-27T02:38:52.992Z,94397.44
2019-04-27T02:41:19.994Z,94399.09
2019-04-27T02:43:51.209Z,94400.45
2019-04-27T02:46:20.055Z,94396.47
2019-04-27T02:48:58.601Z,94397.84
2019-04-27T02:51:22.800Z,94399.09
2019-04-27T02:53:52.730Z,94393.38
2019-04-27T02:56:20.168Z,94400.98
2019-04-27T02:58:49.363Z,94393.11
2019-04-27T03:01:15.454Z,94400.95
2019-04-27T03:03:41.970Z,94394.36
2019-04-27T03:06:09.819Z,94401.70
2019-04-27T03:08:36.434Z,94391.70
2019-04-27T03:11:03.076Z,94386.28
2019-04-27T03:13:31.740Z,94392.45
2019-04-27T03:16:16.981Z,94385.19
2019-04-27T03:18:45.473Z,94384.84
2019-04-27T03:21:19.845Z,94381.39
2019-04-27T03:23:45.321Z,94380.06
2019-04-27T03:26:19.611Z,94384.40
2019-04-27T03:28:45.747Z,94372.11
2019-04-27T03:31:13.925Z,94375.08
2019-04-27T03:33:42.799Z,94378.27
2019-04-27T03:36:13.044Z,94371.55
2019-04-27T03:38:39.642Z,94373.72
2019-04-27T03:41:06.341Z,94377.86
2019-04-27T03:43:32.971Z,94368.23
2019-04-27T03:46:00.565Z,94364.81
2019-04-27T03:48:29.431Z,94363.80
2019-04-27T03:50:59.566Z,94360.48
2019-04-27T03:53:46.495Z,94366.80
2019-04-27T03:56:24.175Z,94365.16
2019-04-27T03:58:55.617Z,94359.34
2019-04-27T04:01:22.190Z,94361.69
2019-04-27T04:03:50.140Z,94353.89
2019-04-27T04:06:19.137Z,94357.24
2019-04-27T04:08:45.620Z,94357.40
2019-04-27T04:11:19.950Z,94353.89
2019-04-27T04:13:49.492Z,94350.92
2019-04-27T04:16:33.523Z,94357.28
2019-04-27T04:19:09.776Z,94347.33
2019-04-27T04:21:36.047Z,94358.72
2019-04-27T04:24:03.622Z,94358.56
2019-04-27T04:26:33.041Z,94361.46
2019-04-27T04:28:59.857Z,94358.97
2019-04-27T04:31:26.561Z,94358.97
2019-04-27T04:33:53.095Z,94355.30
2019-04-27T04:36:20.293Z,94359.75
2019-04-27T04:38:47.099Z,94361.07
2019-04-27T04:41:25.608Z,94353.89
2019-04-27T04:44:03.307Z,94351.92
2019-04-27T04:46:35.898Z,94349.21
2019-04-27T04:49:02.420Z,94354.67
2019-04-27T04:51:30.346Z,94360.10
2019-04-27T04:53:59.784Z,94360.45
2019-04-27T04:56:25.731Z,94363.81
2019-04-27T04:58:52.254Z,94367.70
2019-04-27T05:01:19.631Z,94364.18
2019-04-27T05:03:46.411Z,94366.84
2019-04-27T05:06:12.958Z,94366.37
2019-04-27T05:08:39.495Z,94364.53
2019-04-27T05:11:06.018Z,94360.70
2019-04-27T05:13:32.551Z,94358.30
2019-04-27T05:15:59.110Z,94356.46
2019-04-27T05:18:25.662Z,94362.74
2019-04-27T05:21:11.511Z,94361.58
2019-04-27T05:23:38.811Z,94365.30
2019-04-27T05:26:05.476Z,94369.04
2019-04-27T05:28:32.015Z,94365.72
2019-04-27T05:30:58.711Z,94368.82
2019-04-27T05:33:28.559Z,94371.88
2019-04-27T05:35:55.217Z,94376.65
2019-04-27T05:38:21.761Z,94373.86
2019-04-27T05:40:49.884Z,94369.82
2019-04-27T05:43:19.390Z,94376.69
2019-04-27T05:46:29.715Z,94376.66
2019-04-27T05:49:01.634Z,94376.75
2019-04-27T05:51:25.699Z,94376.70
2019-04-27T05:53:52.487Z,94376.41
2019-04-27T05:56:19.279Z,94380.17
2019-04-27T05:58:49.126Z,94373.84
2019-04-27T06:01:15.894Z,94372.95
2019-04-27T06:03:42.420Z,94369.63
2019-04-27T06:06:09.674Z,94370.71
2019-04-27T06:08:36.400Z,94362.77
2019-04-27T06:11:03.050Z,94368.03
2019-04-27T06:13:31.007Z,94364.61
2019-04-27T06:15:59.264Z,94364.50
2019-04-27T06:18:25.965Z,94359.65
2019-04-27T06:20:55.692Z,94360.22
2019-04-27T06:23:21.115Z,94366.06
2019-04-27T06:25:49.206Z,94376.52
2019-04-27T06:28:16.150Z,94374.29
2019-04-27T06:30:42.688Z,94369.60
2019-04-27T06:33:09.496Z,94372.91
2019-04-27T06:35:36.052Z,94374.11
2019-04-27T06:38:02.695Z,94372.62
2019-04-27T06:40:29.335Z,94384.70
2019-04-27T06:42:55.887Z,94374.34
2019-04-27T06:45:22.421Z,94371.89
2019-04-27T06:47:51.312Z,94370.22
2019-04-27T06:50:17.657Z,94379.38
2019-04-27T06:52:44.190Z,94381.18
2019-04-27T06:55:10.735Z,94384.19
2019-04-27T06:57:37.269Z,94381.67
2019-04-27T07:00:06.116Z,94390.05
2019-04-27T07:02:32.645Z,94391.38
2019-04-27T07:04:59.369Z,94393.84
2019-04-27T07:07:25.989Z,94388.16
2019-04-27T07:09:52.797Z,94385.23
2019-04-27T07:12:19.352Z,94386.05
2019-04-27T07:14:54.384Z,94386.77
2019-04-27T07:17:14.319Z,94392.48
2019-04-27T07:19:40.866Z,94385.08
2019-04-27T07:22:09.091Z,94391.36
2019-04-27T07:24:35.833Z,94384.80
2019-04-27T07:27:03.080Z,94392.75
2019-04-27T07:29:29.625Z,94393.17
2019-04-27T07:31:56.361Z,94392.54
2019-04-27T07:34:22.900Z,94394.09
2019-04-27T07:36:49.426Z,94391.50
2019-04-27T07:39:16.088Z,94396.19
2019-04-27T07:41:42.671Z,94395.44
2019-04-27T07:44:13.790Z,94400.80
2019-04-27T07:46:40.337Z,94404.20
2019-04-27T07:49:06.885Z,94395.70
2019-04-27T07:51:34.362Z,94397.50
2019-04-27T07:54:01.195Z,94387.06
2019-04-27T07:56:29.139Z,94391.95
2019-04-27T07:58:55.789Z,94386.57
2019-04-27T08:01:22.303Z,94383.36
2019-04-27T08:03:49.132Z,94379.93
2019-04-27T08:06:15.775Z,94381.95
2019-04-27T08:08:42.319Z,94377.99
2019-04-27T08:11:11.400Z,94380.50
2019-04-27T08:13:37.300Z,94386.56
2019-04-27T08:16:03.837Z,94387.72
2019-04-27T08:18:30.386Z,94376.66
2019-04-27T08:20:58.947Z,94376.31
2019-04-27T08:23:25.742Z,94375.03
2019-04-27T08:25:52.303Z,94379.57
2019-04-27T08:28:26.633Z,94380.67
2019-04-27T08:30:56.366Z,94374.64
2019-04-27T08:33:22.905Z,94373.78
2019-04-27T08:35:49.469Z,94371.33
2019-04-27T08:38:16.008Z,94372.37
2019-04-27T08:40:42.551Z,94369.59
2019-04-27T08:43:09.365Z,94358.89
2019-04-27T08:45:36.890Z,94360.34
2019-04-27T08:48:03.523Z,94358.05
2019-04-27T08:50:30.068Z,94361.67
2019-04-27T08:52:56.619Z,94368.27
2019-04-27T08:55:23.176Z,94360.36
2019-04-27T08:57:49.697Z,94360.66
2019-04-27T09:00:19.284Z,94359.85
2019-04-27T09:02:47.377Z,94362.66
2019-04-27T09:05:16.467Z,94358.94
2019-04-27T09:07:51.803Z,94354.25
2019-04-27T09:10:36.067Z,94347.28
2019-04-27T09:13:19.337Z,94353.44
2019-04-27T09:15:46.151Z,94347.59
2019-04-27T09:18:14.590Z,94341.19
2019-04-27T09:20:51.907Z,94340.49
2019-04-27T09:23:18.891Z,94338.48
2019-04-27T09:25:45.420Z,94342.73
2019-04-27T09:28:11.964Z,94347.92
2019-04-27T09:30:39.323Z,94347.41
2019-04-27T09:33:06.267Z,94334.91
2019-04-27T09:35:32.980Z,94340.89
2019-04-27T09:37:59.505Z,94340.50
2019-04-27T09:40:26.784Z,94336.34
2019-04-27T09:42:53.477Z,94343.60
2019-04-27T09:45:20.131Z,94338.66
2019-04-27T09:47:46.926Z,94336.42
2019-04-27T09:50:14.101Z,94331.30
2019-04-27T09:52:40.625Z,94322.61
2019-04-27T09:55:08.514Z,94317.23
2019-04-27T09:57:36.446Z,94308.48
2019-04-27T10:00:08.901Z,94310.79
2019-04-27T10:02:36.620Z,94310.19
2019-04-27T10:05:06.104Z,94309.52
2019-04-27T10:07:32.608Z,94316.45
2019-04-27T10:09:59.166Z,94325.13
2019-04-27T10:12:26.118Z,94316.64
2019-04-27T10:14:52.868Z,94310.53
2019-04-27T10:17:19.420Z,94313.55
2019-04-27T10:19:46.203Z,94309.45
2019-04-27T10:22:12.959Z,94312.33
2019-04-27T10:24:39.537Z,94308.02
2019-04-27T10:27:07.899Z,94304.11
2019-04-27T10:29:35.572Z,94300.73
2019-04-27T10:32:02.394Z,94307.20
2019-04-27T10:34:29.031Z,94293.36
2019-04-27T10:36:55.960Z,94292.96
2019-04-27T10:39:22.618Z,94289.91
2019-04-27T10:41:49.162Z,94297.70
2019-04-27T10:44:16.259Z,94299.33
2019-04-27T10:46:43.050Z,94292.31
2019-04-27T10:49:09.812Z,94293.45
2019-04-27T10:51:36.484Z,94290.04
2019-04-27T10:54:04.947Z,94283.23
2019-04-27T10:56:31.595Z,94293.48
2019-04-27T10:58:58.137Z,94285.58
2019-04-27T11:01:25.764Z,94280.01
2019-04-27T11:03:55.525Z,94284.84
2019-04-27T11:06:26.383Z,94290.50
2019-04-27T11:08:52.916Z,94301.50
2019-04-27T11:11:19.795Z,94297.81
2019-04-27T11:13:46.426Z,94303.17
2019-04-27T11:16:12.960Z,94290.23
2019-04-27T11:18:39.494Z,94288.11
2019-04-27T11:21:06.029Z,94293.15
2019-04-27T11:23:32.570Z,94290.45
2019-04-27T11:25:59.137Z,94292.34
2019-04-27T11:28:25.943Z,94291.55
2019-04-27T11:30:53.381Z,94293.52
2019-04-27T11:33:19.929Z,94289.81
2019-04-27T11:35:51.279Z,94288.63
2019-04-27T11:38:18.088Z,94283.59
2019-04-27T11:40:46.492Z,94275.17
2019-04-27T11:43:13.080Z,94275.89
2019-04-27T11:45:39.612Z,94275.20
2019-04-27T11:48:06.144Z,94274.63
2019-04-27T11:50:32.675Z,94275.39
2019-04-27T11:52:59.217Z,94284.99
2019-04-27T11:55:27.357Z,94278.48
2019-04-27T11:57:55.876Z,94280.80
2019-04-27T12:00:24.186Z,94275.52
2019-04-27T12:02:50.771Z,94265.01
2019-04-27T12:05:17.701Z,94268.58
2019-04-27T12:07:47.424Z,94271.61
2019-04-27T12:10:13.512Z,94282.14
2019-04-27T12:12:40.053Z,94270.58
2019-04-27T12:15:09.198Z,94263.43
2019-04-27T12:17:35.964Z,94253.02
2019-04-27T12:20:06.165Z,94245.00
2019-04-27T12:22:32.710Z,94243.84
2019-04-27T12:24:59.243Z,94240.94
2019-04-27T12:27:30.720Z,94235.75
2019-04-27T12:30:02.163Z,94233.23
2019-04-27T12:32:29.023Z,94237.69
2019-04-27T12:34:56.565Z,94240.52
2019-04-27T12:37:23.203Z,94232.51
2019-04-27T12:39:49.736Z,94241.78
2019-04-27T12:42:16.291Z,94241.80
2019-04-27T12:44:42.855Z,94230.09
2019-04-27T12:47:09.393Z,94236.52
2019-04-27T12:49:36.367Z,94223.11
2019-04-27T12:52:05.854Z,94219.50
2019-04-27T12:54:40.259Z,94215.84
2019-04-27T12:57:11.959Z,94213.16
2019-04-27T12:59:56.607Z,94207.56
2019-04-27T13:02:26.606Z,94206.38
2019-04-27T13:04:56.667Z,94210.45
2019-04-27T13:07:23.485Z,94210.91
2019-04-27T13:09:50.342Z,94209.00
2019-04-27T13:12:16.874Z,94205.20
2019-04-27T13:14:45.622Z,94205.12
2019-04-27T13:17:12.150Z,94185.13
2019-04-27T13:19:38.686Z,94184.33
2019-04-27T13:22:06.191Z,94176.20
2019-04-27T13:24:32.871Z,94174.95
2019-04-27T13:26:59.418Z,94163.05
2019-04-27T13:29:26.058Z,94170.34
2019-04-27T13:31:52.589Z,94166.66
2019-04-27T13:34:19.130Z,94163.20
2019-04-27T13:36:45.819Z,94167.33
2019-04-27T13:39:12.705Z,94173.20
2019-04-27T13:41:39.541Z,94180.98
2019-04-27T13:44:06.606Z,94175.08
2019-04-27T13:46:51.900Z,94171.51
2019-04-27T13:49:37.733Z,94167.66
2019-04-27T13:52:06.221Z,94165.23
2019-04-27T13:54:32.707Z,94168.78
2019-04-27T13:56:59.239Z,94185.52
2019-04-27T13:59:25.775Z,94223.06
2019-04-27T14:01:52.613Z,94252.53
2019-04-27T14:04:19.151Z,94250.84
2019-04-27T14:06:45.932Z,94243.08
2019-04-27T14:09:12.818Z,94260.47
2019-04-27T14:11:39.506Z,94257.31
2019-04-27T14:14:06.382Z,94268.22
2019-04-27T14:16:32.912Z,94260.77
2019-04-27T14:18:59.799Z,94261.95
2019-04-27T14:21:26.340Z,94264.91
2019-04-27T14:23:52.875Z,94273.21
2019-04-27T14:26:19.407Z,94274.69
2019-04-27T14:28:45.951Z,94295.39
2019-04-27T14:31:12.489Z,94278.69
2019-04-27T14:33:39.799Z,94278.86
2019-04-27T14:36:08.197Z,94290.48
2019-04-27T14:38:34.998Z,94279.27
2019-04-27T14:41:01.556Z,94278.11
2019-04-27T14:43:28.666Z,94258.84
2019-04-27T14:45:55.243Z,94257.33
2019-04-27T14:48:21.782Z,94249.22
2019-04-27T14:50:48.668Z,94255.75
2019-04-27T14:53:15.505Z,94263.13
2019-04-27T14:55:42.434Z,94261.90
2019-04-27T14:58:08.957Z,94259.44
2019-04-27T15:00:35.898Z,94257.70
2019-04-27T15:03:02.725Z,94253.48
2019-04-27T15:05:29.407Z,94258.77
2019-04-27T15:07:56.242Z,94293.36
2019-04-27T15:10:28.640Z,94292.25
2019-04-27T15:12:51.249Z,94304.52
2019-04-27T15:15:17.894Z,94309.35
2019-04-27T15:17:44.421Z,94328.19
2019-04-27T15:20:31.095Z,94330.96
2019-04-27T15:23:00.086Z,94339.05
2019-04-27T15:25:26.731Z,94300.52
2019-04-27T15:27:58.353Z,94282.86
2019-04-27T15:30:26.816Z,94274.95
2019-04-27T15:33:00.390Z,94246.05
2019-04-27T15:35:29.471Z,94239.58
2019-04-27T15:38:14.684Z,94226.92
2019-04-27T15:40:59.847Z,94226.91
2019-04-27T15:43:30.938Z,94238.61
2019-04-27T15:45:57.628Z,94242.67
2019-04-27T15:48:30.589Z,94239.05
2019-04-27T15:50:53.841Z,94235.73
2019-04-27T15:53:20.378Z,94232.45
2019-04-27T15:55:47.148Z,94235.44
2019-04-27T15:58:13.730Z,94224.11
2019-04-27T16:00:40.709Z,94218.70
2019-04-27T16:03:08.023Z,94214.31
2019-04-27T16:05:36.101Z,94211.62
2019-04-27T16:08:06.212Z,94216.57
2019-04-27T16:10:32.943Z,94223.63
2019-04-27T16:13:06.302Z,94232.98
2019-04-27T16:15:29.947Z,94231.73
2019-04-27T16:17:58.459Z,94238.79
2019-04-27T16:20:30.028Z,94241.09
2019-04-27T16:22:56.825Z,94246.52
2019-04-27T16:25:23.584Z,94246.03
2019-04-27T16:27:50.491Z,94252.24
2019-04-27T16:30:20.430Z,94250.06
2019-04-27T16:32:48.006Z,94249.27
2019-04-27T16:35:19.606Z,94238.64
2019-04-27T16:37:52.098Z,94242.02
2019-04-27T16:40:24.396Z,94247.23
2019-04-27T16:42:50.648Z,94257.69
2019-04-27T16:45:16.362Z,94261.50
2019-04-27T16:47:43.162Z,94270.37
2019-04-27T16:50:10.191Z,94268.84
2019-04-27T16:52:36.738Z,94276.83
2019-04-27T16:55:04.059Z,94283.05
2019-04-27T16:57:32.553Z,94277.13
2019-04-27T17:00:00.980Z,94279.53
2019-04-27T17:02:27.845Z,94292.95
2019-04-27T17:04:55.630Z,94299.79
2019-04-27T17:07:22.318Z,94304.22
2019-04-27T17:09:49.431Z,94304.45
2019-04-27T17:12:18.031Z,94309.42
2019-04-27T17:14:58.654Z,94306.84
2019-04-27T17:17:29.749Z,94311.28
2019-04-27T17:20:01.061Z,94317.63
2019-04-27T17:22:28.657Z,94329.95
2019-04-27T17:24:55.244Z,94384.04
2019-04-27T17:27:28.876Z,94405.08
2019-04-27T17:29:57.981Z,94403.31
2019-04-27T17:32:25.642Z,94391.37
2019-04-27T17:34:51.072Z,94391.48
2019-04-27T17:37:17.592Z,94395.06
2019-04-27T17:39:44.130Z,94390.03
2019-04-27T17:42:10.660Z,94381.25
2019-04-27T17:44:39.158Z,94379.35
2019-04-27T17:47:05.643Z,94378.10
2019-04-27T17:49:32.176Z,94376.09
2019-04-27T17:51:58.709Z,94346.85
2019-04-27T17:54:25.248Z,94334.97
2019-04-27T17:56:52.381Z,94337.37
2019-04-27T17:59:20.885Z,94340.83
2019-04-27T18:01:49.642Z,94341.01
2019-04-27T18:04:18.394Z,94347.97
2019-04-27T18:06:45.222Z,94359.40
2019-04-27T18:09:15.371Z,94358.22
2019-04-27T18:11:42.495Z,94363.71
2019-04-27T18:14:14.369Z,94370.17
2019-04-27T18:16:38.559Z,94371.14
2019-04-27T18:19:11.717Z,94371.99
2019-04-27T18:21:40.097Z,94380.74
2019-04-27T18:24:14.642Z,94393.80
2019-04-27T18:26:56.479Z,94397.09
2019-04-27T18:29:22.807Z,94389.97
2019-04-27T18:31:52.998Z,94398.20
2019-04-27T18:34:18.945Z,94417.70
2019-04-27T18:36:45.614Z,94420.70
2019-04-27T18:39:13.696Z,94441.77
2019-04-27T18:41:49.173Z,94429.29
2019-04-27T18:44:11.138Z,94437.95
2019-04-27T18:46:38.469Z,94455.42
2019-04-27T18:49:08.915Z,94488.91
2019-04-27T18:51:57.928Z,94501.30
2019-04-27T18:54:22.783Z,94521.86
2019-04-27T18:57:01.637Z,94506.31
2019-04-27T18:59:18.748Z,94507.88
2019-04-27T19:01:45.460Z,94504.95
2019-04-27T19:04:12.320Z,94507.20
2019-04-27T19:06:39.676Z,94512.72
2019-04-27T19:09:08.242Z,94507.19
2019-04-27T19:11:34.962Z,94506.27
2019-04-27T19:14:01.569Z,94507.22
2019-04-27T19:16:29.196Z,94508.73
2019-04-27T19:18:55.983Z,94507.36
2019-04-27T19:21:22.538Z,94514.34
2019-04-27T19:23:49.414Z,94509.76
2019-04-27T19:26:20.382Z,94503.17
2019-04-27T19:29:05.753Z,94507.98
2019-04-27T19:31:48.403Z,94504.65
2019-04-27T19:34:17.708Z,94503.89
2019-04-27T19:36:44.878Z,94491.66
2019-04-27T19:39:14.005Z,94499.38
2019-04-27T19:41:40.777Z,94496.53
2019-04-27T19:44:08.579Z,94496.01
2019-04-27T19:46:35.766Z,94507.08
2019-04-27T19:49:03.015Z,94500.58
2019-04-27T19:51:29.576Z,94505.49
2019-04-27T19:53:58.044Z,94513.97
2019-04-27T19:56:24.585Z,94511.66
2019-04-27T19:58:53.238Z,94513.97
2019-04-27T20:01:38.326Z,94523.94
2019-04-27T20:04:13.183Z,94529.25
2019-04-27T20:06:39.772Z,94534.23
2019-04-27T20:09:26.048Z,94527.98
2019-04-27T20:11:52.929Z,94531.17
2019-04-27T20:14:20.892Z,94531.45
2019-04-27T20:16:47.617Z,94532.41
2019-04-27T20:19:14.143Z,94537.69
2019-04-27T20:21:40.870Z,94543.46
2019-04-27T20:24:07.530Z,94533.29
2019-04-27T20:26:34.126Z,94541.95
2019-04-27T20:29:01.516Z,94538.35
2019-04-27T20:31:28.163Z,94536.12
2019-04-27T20:33:54.697Z,94539.69
2019-04-27T20:36:21.438Z,94542.19
2019-04-27T20:38:48.061Z,94543.15
2019-04-27T20:41:14.602Z,94547.00
2019-04-27T20:43:42.036Z,94552.94
2019-04-27T20:46:08.810Z,94559.34
2019-04-27T20:48:35.383Z,94572.73
2019-04-27T20:51:01.941Z,94571.11
2019-04-27T20:53:33.658Z,94577.11
2019-04-27T20:56:00.376Z,94573.48
2019-04-27T20:58:26.931Z,94584.34
2019-04-27T21:00:53.498Z,94585.33
2019-04-27T21:03:21.948Z,94584.30
2019-04-27T21:05:57.635Z,94576.09
2019-04-27T21:08:26.090Z,94586.81
2019-04-27T21:10:52.621Z,94583.84
2019-04-27T21:13:19.164Z,94590.60
2019-04-27T21:15:45.701Z,94595.22
2019-04-27T21:18:12.256Z,94581.80
2019-04-27T21:20:38.789Z,94583.19
2019-04-27T21:23:05.637Z,94574.64
2019-04-27T21:25:33.588Z,94576.39
2019-04-27T21:28:14.860Z,94581.53
2019-04-27T21:30:28.851Z,94582.59
2019-04-27T21:32:55.388Z,94589.87
2019-04-27T21:35:21.926Z,94589.52
2019-04-27T21:37:48.467Z,94602.78
2019-04-27T21:40:22.172Z,94598.55
2019-04-27T21:42:51.063Z,94602.05
2019-04-27T21:45:18.279Z,94589.70
2019-04-27T21:47:45.499Z,94600.30
2019-04-27T21:50:14.456Z,94597.66
2019-04-27T21:52:45.642Z,94592.11
2019-04-27T21:55:14.078Z,94592.80
2019-04-27T21:57:41.059Z,94591.58
2019-04-27T22:00:27.006Z,94590.23
2019-04-27T22:02:53.586Z,94596.56
2019-04-27T22:05:21.018Z,94594.09
2019-04-27T22:07:47.652Z,94593.37
2019-04-27T22:10:14.199Z,94596.41
2019-04-27T22:12:41.623Z,94591.33
2019-04-27T22:15:08.467Z,94599.54
2019-04-27T22:17:35.003Z,94604.42
2019-04-27T22:20:05.239Z,94614.09
2019-04-27T22:22:42.468Z,94616.89
2019-04-27T22:25:11.658Z,94615.27
2019-04-27T22:27:38.273Z,94611.61
2019-04-27T22:30:06.000Z,94612.94
2019-04-27T22:32:32.894Z,94616.27
2019-04-27T22:35:04.234Z,94618.27
2019-04-27T22:37:31.209Z,94619.42
2019-04-27T22:40:11.514Z,94617.97
2019-04-27T22:42:51.580Z,94631.98
2019-04-27T22:45:20.131Z,94637.70
2019-04-27T22:47:46.668Z,94646.20
2019-04-27T22:50:13.202Z,94643.36
2019-04-27T22:52:41.077Z,94638.05
2019-04-27T22:55:07.889Z,94637.22
2019-04-27T22:57:36.447Z,94641.51
2019-04-27T23:00:08.006Z,94642.78
2019-04-27T23:02:36.438Z,94643.45
2019-04-27T23:05:04.583Z,94646.05
2019-04-27T23:07:31.612Z,94640.27
2019-04-27T23:09:58.525Z,94641.77
2019-04-27T23:12:25.062Z,94636.32
2019-04-27T23:14:51.613Z,94633.61
2019-04-27T23:17:36.480Z,94639.33
2019-04-27T23:20:05.018Z,94633.44
2019-04-27T23:22:31.639Z,94641.59
2019-04-27T23:24:58.172Z,94644.40
2019-04-27T23:27:24.706Z,94646.91
2019-04-27T23:29:51.609Z,94659.45
2019-04-27T23:32:21.073Z,94651.37
2019-04-27T23:34:48.696Z,94649.45
2019-04-27T23:37:15.227Z,94649.94
2019-04-27T23:39:41.779Z,94644.13
2019-04-27T23:42:08.302Z,94643.59
2019-04-27T23:44:34.839Z,94638.44
2019-04-27T23:47:01.364Z,94635.81
2019-04-27T23:49:27.922Z,94632.02
2019-04-27T23:51:56.359Z,94626.03
2019-04-27T23:54:23.034Z,94625.33
2019-04-27T23:56:49.563Z,94632.25
2019-04-27T23:59:24.714Z,94621.09
